Dobbins Air Reserve Base Airport
KMGE : now visible

Airfield :











YOU CAN JOIN US ON...

 
LOGIN :

Register | Disclaimer

   EN    FR    IT 

 









Legend :    VFR   Marginal VFR   IFR   Intensive IFR   Very Intensive IFR
Visi :
Ceiling :
>= 8 km
>= 3000ft
5 to 8 km
1000 to 3000 ft
1500m to 5 km
500 to 1000 ft
800 to 1500m
200 to 500 ft
< 800m
< 200 ft
Symbols :   Thunderstorms  Fog  Heavy snow  Heavy precipitations  Wind > 20 kt






- Airport Elevation : 1068 ft


KMGE - Dobbins Air Reserve Base

CURRENT METAR :
  • 272356Z 30009KT 10SM FEW060 24/13 A2988 RMK AO2A SLP112 T02370129 10272 20236 53008 $

EXPIRED METARs :
  • 272256Z 30012KT 10SM FEW060 25/13 A2986 RMK AO2A SLP105 T02480130 $
  • 272156Z 29012KT 10SM SCT060 26/13 A2985 RMK AO2A SLP101 T02610125 $

TAF TAF KMGE
Valid from the 27 at 21:00 until the 29 at 03:00 UTC


272105Z 2721/2903 27010G22KT 9999 BKN060 QNH2980INS
TEMPO 2721/2723 27012G25KT
BECMG 2722/2723 30008KT 9999 FEW060 QNH2982INS
BECMG 2816/2817 30012KT 9999 SCT060 QNH2985INS
BECMG 2823/2824 34005KT 9999 SKC QNH2990INS TX28/2821Z TN14/2811Z LAST NO AMDS AFT 2803 NEXT 2810
KZTL FIR / North America



MET'MAP, your aeronautical weather chart ! - Copyright ORBIFLY December 2007 - Disclaimer

ORBIFLY MET'MAP TEAM :

Programming & Development : Alexandra Zaïnal
Original concept : Baudouin d'Aumeries
Technical & hardware support : Manuel Goepfert
Assistance : Marc-Olivier Méhu

Contact : metmap@orbifly.com




SOURCES & CREDITS :

   NOAA       Earth
Advisory